aviador You're here:

KGRI Decoded Metar

GRAND ISLAND in NE, USA
Report Time2017-11-20 14:53:00
UTC Time2017-11-20 15:29:40
Flight Rules vfr VFR
Wind230° at 10 kt
W.Decomp.*RWY 17: 6.0 kt HW 8.0 kt RCW
RWY 31: 0.5 kt HW 10 kt LCW
W.Rank230° ranks 29
Current wind is above 230° avg. (9.0)
Visibility9999 m
Phenomena:N/A
Clouds:N/A
Expected CloudBase > 3,200 ft AGL from Temp-Dew spread
CeilingNone
Temp04°C (ISA -7)
Dew Point-4°C (56% RH)
AAT-2.1°C
QNH1006 hPa
Density Alt1,263 ft
Elevation1,841 ft
Report Wrong Elevation
Raw Report
KGRI 201453Z 23010KT 10SM CLR 04/M04 A2972 RMK AO2 SLP077
T00441044 55008=

Extra information for KGRI:More info

Metar Taf Metar & Taf Last 4 Metars F.Rules Stats Wind Profile Meteogram Temp Stats Airport Information Weather charts Add Link Nearby VenuesMetar ALERT Operation Metar Decoded Social comments

AIRNAV info for KGRI